sensor_id;sensor_type;location;lat;lon;timestamp;P1;durP1;ratioP1;P2;durP2;ratioP2
9322;SDS011;4700;48.822;9.270;2022-10-16T00:02:25;2.67;;;1.50;;
9322;SDS011;4700;48.822;9.270;2022-10-16T00:05:10;1.70;;;1.60;;
9322;SDS011;4700;48.822;9.270;2022-10-16T00:07:57;1.90;;;1.30;;
9322;SDS011;4700;48.822;9.270;2022-10-16T00:10:43;1.90;;;1.60;;
9322;SDS011;4700;48.822;9.270;2022-10-16T00:13:29;1.80;;;1.67;;
9322;SDS011;4700;48.822;9.270;2022-10-16T00:16:15;2.43;;;1.50;;
9322;SDS011;4700;48.822;9.270;2022-10-16T00:19:02;1.70;;;1.60;;
9322;SDS011;4700;48.822;9.270;2022-10-16T00:21:48;1.67;;;1.53;;
9322;SDS011;4700;48.822;9.270;2022-10-16T00:24:36;3.40;;;1.93;;
9322;SDS011;4700;48.822;9.270;2022-10-16T00:27:21;1.63;;;1.53;;
9322;SDS011;4700;48.822;9.270;2022-10-16T00:30:08;3.80;;;1.83;;
9322;SDS011;4700;48.822;9.270;2022-10-16T00:32:54;2.07;;;1.67;;
9322;SDS011;4700;48.822;9.270;2022-10-16T00:35:40;1.80;;;1.70;;
9322;SDS011;4700;48.822;9.270;2022-10-16T00:38:26;2.60;;;2.10;;
9322;SDS011;4700;48.822;9.270;2022-10-16T00:41:14;4.40;;;1.60;;
9322;SDS011;4700;48.822;9.270;2022-10-16T00:44:02;2.43;;;2.33;;
9322;SDS011;4700;48.822;9.270;2022-10-16T00:46:48;1.70;;;1.60;;
9322;SDS011;4700;48.822;9.270;2022-10-16T00:49:36;1.80;;;1.70;;
9322;SDS011;4700;48.822;9.270;2022-10-16T00:52:21;1.40;;;1.30;;
9322;SDS011;4700;48.822;9.270;2022-10-16T00:55:10;1.93;;;1.43;;
9322;SDS011;4700;48.822;9.270;2022-10-16T00:57:57;2.10;;;1.40;;
9322;SDS011;4700;48.822;9.270;2022-10-16T01:00:43;5.47;;;1.90;;
9322;SDS011;4700;48.822;9.270;2022-10-16T01:03:30;4.63;;;1.90;;
9322;SDS011;4700;48.822;9.270;2022-10-16T01:06:24;1.40;;;1.30;;
9322;SDS011;4700;48.822;9.270;2022-10-16T01:09:21;1.67;;;1.30;;
9322;SDS011;4700;48.822;9.270;2022-10-16T01:12:14;1.97;;;1.17;;
9322;SDS011;4700;48.822;9.270;2022-10-16T01:15:06;1.60;;;1.50;;
9322;SDS011;4700;48.822;9.270;2022-10-16T01:17:57;1.80;;;1.70;;
9322;SDS011;4700;48.822;9.270;2022-10-16T01:20:47;1.47;;;1.37;;
9322;SDS011;4700;48.822;9.270;2022-10-16T01:23:42;1.43;;;1.33;;
9322;SDS011;4700;48.822;9.270;2022-10-16T01:26:39;3.80;;;1.43;;
9322;SDS011;4700;48.822;9.270;2022-10-16T01:29:36;1.50;;;1.40;;
9322;SDS011;4700;48.822;9.270;2022-10-16T01:32:28;1.80;;;1.70;;
9322;SDS011;4700;48.822;9.270;2022-10-16T01:35:18;3.33;;;1.60;;
9322;SDS011;4700;48.822;9.270;2022-10-16T01:38:10;1.87;;;1.70;;
9322;SDS011;4700;48.822;9.270;2022-10-16T01:41:01;2.23;;;1.60;;
9322;SDS011;4700;48.822;9.270;2022-10-16T01:43:52;1.40;;;1.20;;
9322;SDS011;4700;48.822;9.270;2022-10-16T01:46:45;1.50;;;1.40;;
9322;SDS011;4700;48.822;9.270;2022-10-16T01:49:33;1.90;;;1.20;;
9322;SDS011;4700;48.822;9.270;2022-10-16T01:52:21;1.40;;;1.30;;
9322;SDS011;4700;48.822;9.270;2022-10-16T01:55:11;1.40;;;1.30;;
9322;SDS011;4700;48.822;9.270;2022-10-16T01:57:59;1.80;;;1.70;;
9322;SDS011;4700;48.822;9.270;2022-10-16T02:00:47;3.63;;;1.40;;
9322;SDS011;4700;48.822;9.270;2022-10-16T02:03:34;2.30;;;1.90;;
9322;SDS011;4700;48.822;9.270;2022-10-16T02:06:25;1.43;;;1.33;;
9322;SDS011;4700;48.822;9.270;2022-10-16T02:09:11;2.00;;;1.80;;
9322;SDS011;4700;48.822;9.270;2022-10-16T02:11:59;2.77;;;1.80;;
9322;SDS011;4700;48.822;9.270;2022-10-16T02:14:50;2.90;;;2.20;;
9322;SDS011;4700;48.822;9.270;2022-10-16T02:17:37;3.13;;;1.90;;
9322;SDS011;4700;48.822;9.270;2022-10-16T02:20:25;4.23;;;1.93;;
9322;SDS011;4700;48.822;9.270;2022-10-16T02:23:16;3.80;;;1.87;;
9322;SDS011;4700;48.822;9.270;2022-10-16T02:26:08;1.67;;;1.57;;
9322;SDS011;4700;48.822;9.270;2022-10-16T02:29:00;1.60;;;1.50;;
9322;SDS011;4700;48.822;9.270;2022-10-16T02:31:51;4.00;;;1.60;;
9322;SDS011;4700;48.822;9.270;2022-10-16T02:34:42;2.13;;;1.93;;
9322;SDS011;4700;48.822;9.270;2022-10-16T02:37:31;1.67;;;1.57;;
9322;SDS011;4700;48.822;9.270;2022-10-16T02:40:18;2.00;;;1.53;;
9322;SDS011;4700;48.822;9.270;2022-10-16T02:43:04;1.40;;;1.30;;
9322;SDS011;4700;48.822;9.270;2022-10-16T02:45:51;2.27;;;1.70;;
9322;SDS011;4700;48.822;9.270;2022-10-16T02:48:36;1.80;;;1.70;;
9322;SDS011;4700;48.822;9.270;2022-10-16T02:51:22;1.97;;;1.87;;
9322;SDS011;4700;48.822;9.270;2022-10-16T02:54:10;2.50;;;1.93;;
9322;SDS011;4700;48.822;9.270;2022-10-16T02:56:56;2.47;;;2.03;;
9322;SDS011;4700;48.822;9.270;2022-10-16T02:59:42;1.93;;;1.80;;
9322;SDS011;4700;48.822;9.270;2022-10-16T03:02:28;1.90;;;1.80;;
9322;SDS011;4700;48.822;9.270;2022-10-16T03:05:13;1.93;;;1.50;;
9322;SDS011;4700;48.822;9.270;2022-10-16T03:08:00;1.50;;;1.40;;
9322;SDS011;4700;48.822;9.270;2022-10-16T03:10:47;3.57;;;1.77;;
9322;SDS011;4700;48.822;9.270;2022-10-16T03:13:33;7.97;;;2.20;;
9322;SDS011;4700;48.822;9.270;2022-10-16T03:16:18;2.07;;;1.90;;
9322;SDS011;4700;48.822;9.270;2022-10-16T03:19:04;1.93;;;1.70;;
9322;SDS011;4700;48.822;9.270;2022-10-16T03:21:50;1.90;;;1.80;;
9322;SDS011;4700;48.822;9.270;2022-10-16T03:24:36;2.63;;;1.63;;
9322;SDS011;4700;48.822;9.270;2022-10-16T03:27:23;1.80;;;1.60;;
9322;SDS011;4700;48.822;9.270;2022-10-16T03:30:09;2.20;;;2.00;;
9322;SDS011;4700;48.822;9.270;2022-10-16T03:32:55;2.20;;;2.00;;
9322;SDS011;4700;48.822;9.270;2022-10-16T03:35:41;2.17;;;1.97;;
9322;SDS011;4700;48.822;9.270;2022-10-16T03:38:26;2.00;;;1.47;;
9322;SDS011;4700;48.822;9.270;2022-10-16T03:41:12;4.30;;;1.97;;
9322;SDS011;4700;48.822;9.270;2022-10-16T03:43:59;2.93;;;1.80;;
9322;SDS011;4700;48.822;9.270;2022-10-16T03:46:45;2.00;;;1.77;;
9322;SDS011;4700;48.822;9.270;2022-10-16T03:49:31;1.83;;;1.73;;
9322;SDS011;4700;48.822;9.270;2022-10-16T03:52:16;3.67;;;2.03;;
9322;SDS011;4700;48.822;9.270;2022-10-16T03:55:02;3.00;;;1.90;;
9322;SDS011;4700;48.822;9.270;2022-10-16T03:57:48;2.20;;;2.00;;
9322;SDS011;4700;48.822;9.270;2022-10-16T04:00:35;2.53;;;2.00;;
9322;SDS011;4700;48.822;9.270;2022-10-16T04:03:24;2.80;;;2.60;;
9322;SDS011;4700;48.822;9.270;2022-10-16T04:06:09;1.70;;;1.60;;
9322;SDS011;4700;48.822;9.270;2022-10-16T04:08:55;2.53;;;1.83;;
9322;SDS011;4700;48.822;9.270;2022-10-16T04:11:41;2.60;;;2.40;;
9322;SDS011;4700;48.822;9.270;2022-10-16T04:14:27;2.50;;;2.30;;
9322;SDS011;4700;48.822;9.270;2022-10-16T04:17:14;3.30;;;2.73;;
9322;SDS011;4700;48.822;9.270;2022-10-16T04:20:00;4.07;;;2.10;;
9322;SDS011;4700;48.822;9.270;2022-10-16T04:22:46;2.90;;;2.70;;
9322;SDS011;4700;48.822;9.270;2022-10-16T04:25:32;4.20;;;2.27;;
9322;SDS011;4700;48.822;9.270;2022-10-16T04:28:17;2.90;;;2.70;;
9322;SDS011;4700;48.822;9.270;2022-10-16T04:31:03;3.63;;;2.40;;
9322;SDS011;4700;48.822;9.270;2022-10-16T04:33:50;2.37;;;2.17;;
9322;SDS011;4700;48.822;9.270;2022-10-16T04:36:36;2.60;;;2.23;;
9322;SDS011;4700;48.822;9.270;2022-10-16T04:39:22;2.60;;;2.40;;
9322;SDS011;4700;48.822;9.270;2022-10-16T04:42:08;2.90;;;2.00;;
9322;SDS011;4700;48.822;9.270;2022-10-16T04:44:53;5.50;;;1.97;;
9322;SDS011;4700;48.822;9.270;2022-10-16T04:47:39;4.10;;;2.13;;
9322;SDS011;4700;48.822;9.270;2022-10-16T04:50:26;2.70;;;1.90;;
9322;SDS011;4700;48.822;9.270;2022-10-16T04:53:12;3.47;;;2.60;;
9322;SDS011;4700;48.822;9.270;2022-10-16T04:55:58;2.53;;;2.33;;
9322;SDS011;4700;48.822;9.270;2022-10-16T04:58:44;3.03;;;2.53;;
9322;SDS011;4700;48.822;9.270;2022-10-16T05:01:29;3.20;;;2.27;;
9322;SDS011;4700;48.822;9.270;2022-10-16T05:04:15;3.83;;;2.27;;
9322;SDS011;4700;48.822;9.270;2022-10-16T05:07:02;2.80;;;2.60;;
9322;SDS011;4700;48.822;9.270;2022-10-16T05:09:48;2.27;;;2.07;;
9322;SDS011;4700;48.822;9.270;2022-10-16T05:12:34;3.43;;;2.53;;
9322;SDS011;4700;48.822;9.270;2022-10-16T05:15:19;2.70;;;2.50;;
9322;SDS011;4700;48.822;9.270;2022-10-16T05:18:05;3.97;;;2.20;;
9322;SDS011;4700;48.822;9.270;2022-10-16T05:20:51;3.50;;;3.20;;
9322;SDS011;4700;48.822;9.270;2022-10-16T05:23:38;3.23;;;2.43;;
9322;SDS011;4700;48.822;9.270;2022-10-16T05:26:24;2.60;;;2.40;;
9322;SDS011;4700;48.822;9.270;2022-10-16T05:29:09;5.07;;;3.23;;
9322;SDS011;4700;48.822;9.270;2022-10-16T05:31:55;3.27;;;3.07;;
9322;SDS011;4700;48.822;9.270;2022-10-16T05:34:41;2.87;;;2.63;;
9322;SDS011;4700;48.822;9.270;2022-10-16T05:37:27;8.40;;;2.67;;
9322;SDS011;4700;48.822;9.270;2022-10-16T05:40:15;3.63;;;3.00;;
9322;SDS011;4700;48.822;9.270;2022-10-16T05:43:01;7.47;;;3.00;;
9322;SDS011;4700;48.822;9.270;2022-10-16T05:45:53;4.10;;;2.43;;
9322;SDS011;4700;48.822;9.270;2022-10-16T05:48:39;2.53;;;2.33;;
9322;SDS011;4700;48.822;9.270;2022-10-16T05:51:25;3.53;;;2.57;;
9322;SDS011;4700;48.822;9.270;2022-10-16T05:54:11;3.73;;;3.03;;
9322;SDS011;4700;48.822;9.270;2022-10-16T05:56:58;4.80;;;2.40;;
9322;SDS011;4700;48.822;9.270;2022-10-16T05:59:44;3.90;;;3.27;;
9322;SDS011;4700;48.822;9.270;2022-10-16T06:02:30;3.07;;;2.87;;
9322;SDS011;4700;48.822;9.270;2022-10-16T06:05:15;2.97;;;2.73;;
9322;SDS011;4700;48.822;9.270;2022-10-16T06:08:01;5.83;;;2.97;;
9322;SDS011;4700;48.822;9.270;2022-10-16T06:10:47;4.00;;;3.10;;
9322;SDS011;4700;48.822;9.270;2022-10-16T06:13:35;2.57;;;2.37;;
9322;SDS011;4700;48.822;9.270;2022-10-16T06:16:21;2.90;;;2.70;;
9322;SDS011;4700;48.822;9.270;2022-10-16T06:19:07;3.60;;;3.30;;
9322;SDS011;4700;48.822;9.270;2022-10-16T06:21:55;3.43;;;3.03;;
9322;SDS011;4700;48.822;9.270;2022-10-16T06:24:41;4.60;;;2.53;;
9322;SDS011;4700;48.822;9.270;2022-10-16T06:27:27;3.97;;;2.53;;
9322;SDS011;4700;48.822;9.270;2022-10-16T06:30:15;3.00;;;2.70;;
9322;SDS011;4700;48.822;9.270;2022-10-16T06:33:01;3.43;;;3.17;;
9322;SDS011;4700;48.822;9.270;2022-10-16T06:35:46;4.93;;;3.30;;
9322;SDS011;4700;48.822;9.270;2022-10-16T06:38:32;5.00;;;2.97;;
9322;SDS011;4700;48.822;9.270;2022-10-16T06:41:19;6.57;;;2.97;;
9322;SDS011;4700;48.822;9.270;2022-10-16T06:44:06;2.40;;;2.20;;
9322;SDS011;4700;48.822;9.270;2022-10-16T06:46:54;2.70;;;2.50;;
9322;SDS011;4700;48.822;9.270;2022-10-16T06:49:42;3.07;;;2.77;;
9322;SDS011;4700;48.822;9.270;2022-10-16T06:52:28;4.50;;;3.53;;
9322;SDS011;4700;48.822;9.270;2022-10-16T06:55:14;3.13;;;2.70;;
9322;SDS011;4700;48.822;9.270;2022-10-16T06:58:00;2.90;;;2.70;;
9322;SDS011;4700;48.822;9.270;2022-10-16T07:00:46;2.67;;;2.40;;
9322;SDS011;4700;48.822;9.270;2022-10-16T07:03:35;3.10;;;2.30;;
9322;SDS011;4700;48.822;9.270;2022-10-16T07:06:22;3.97;;;2.40;;
9322;SDS011;4700;48.822;9.270;2022-10-16T07:09:09;6.10;;;2.60;;
9322;SDS011;4700;48.822;9.270;2022-10-16T07:11:55;2.80;;;2.57;;
9322;SDS011;4700;48.822;9.270;2022-10-16T07:14:41;3.00;;;2.30;;
9322;SDS011;4700;48.822;9.270;2022-10-16T07:17:27;4.83;;;2.13;;
9322;SDS011;4700;48.822;9.270;2022-10-16T07:20:14;3.43;;;2.90;;
9322;SDS011;4700;48.822;9.270;2022-10-16T07:23:01;4.47;;;2.80;;
9322;SDS011;4700;48.822;9.270;2022-10-16T07:25:52;2.30;;;2.07;;
9322;SDS011;4700;48.822;9.270;2022-10-16T07:28:39;1.60;;;1.50;;
9322;SDS011;4700;48.822;9.270;2022-10-16T07:31:27;2.70;;;2.23;;
9322;SDS011;4700;48.822;9.270;2022-10-16T07:34:13;4.30;;;2.40;;
9322;SDS011;4700;48.822;9.270;2022-10-16T07:37:01;2.30;;;2.10;;
9322;SDS011;4700;48.822;9.270;2022-10-16T07:39:47;4.43;;;2.13;;
9322;SDS011;4700;48.822;9.270;2022-10-16T07:42:33;1.93;;;1.83;;
9322;SDS011;4700;48.822;9.270;2022-10-16T07:45:18;2.17;;;1.90;;
9322;SDS011;4700;48.822;9.270;2022-10-16T07:48:05;2.73;;;2.23;;
9322;SDS011;4700;48.822;9.270;2022-10-16T07:50:51;2.50;;;2.30;;
9322;SDS011;4700;48.822;9.270;2022-10-16T07:53:38;2.90;;;2.30;;
9322;SDS011;4700;48.822;9.270;2022-10-16T07:56:24;2.43;;;2.20;;
9322;SDS011;4700;48.822;9.270;2022-10-16T07:59:10;3.93;;;2.30;;
9322;SDS011;4700;48.822;9.270;2022-10-16T08:01:56;2.40;;;1.97;;
9322;SDS011;4700;48.822;9.270;2022-10-16T08:04:42;6.70;;;2.10;;
9322;SDS011;4700;48.822;9.270;2022-10-16T08:07:27;4.43;;;2.63;;
9322;SDS011;4700;48.822;9.270;2022-10-16T08:10:15;2.37;;;1.63;;
9322;SDS011;4700;48.822;9.270;2022-10-16T08:13:02;3.53;;;2.20;;
9322;SDS011;4700;48.822;9.270;2022-10-16T08:15:48;6.57;;;2.27;;
9322;SDS011;4700;48.822;9.270;2022-10-16T08:18:33;2.40;;;2.20;;
9322;SDS011;4700;48.822;9.270;2022-10-16T08:21:21;2.00;;;1.90;;
9322;SDS011;4700;48.822;9.270;2022-10-16T08:24:07;3.80;;;2.57;;
9322;SDS011;4700;48.822;9.270;2022-10-16T08:26:55;2.60;;;1.93;;
9322;SDS011;4700;48.822;9.270;2022-10-16T08:29:41;3.20;;;2.20;;
9322;SDS011;4700;48.822;9.270;2022-10-16T08:32:27;2.20;;;1.70;;
9322;SDS011;4700;48.822;9.270;2022-10-16T08:35:12;1.80;;;1.70;;
9322;SDS011;4700;48.822;9.270;2022-10-16T08:37:58;1.70;;;1.57;;
9322;SDS011;4700;48.822;9.270;2022-10-16T08:40:44;5.03;;;1.50;;
9322;SDS011;4700;48.822;9.270;2022-10-16T08:43:35;2.30;;;1.80;;
9322;SDS011;4700;48.822;9.270;2022-10-16T08:46:32;2.70;;;1.40;;
9322;SDS011;4700;48.822;9.270;2022-10-16T08:49:25;4.30;;;1.63;;
9322;SDS011;4700;48.822;9.270;2022-10-16T08:52:11;3.03;;;1.43;;
9322;SDS011;4700;48.822;9.270;2022-10-16T08:54:58;2.03;;;1.80;;
9322;SDS011;4700;48.822;9.270;2022-10-16T08:57:44;5.93;;;2.03;;
9322;SDS011;4700;48.822;9.270;2022-10-16T09:00:31;4.03;;;1.67;;
9322;SDS011;4700;48.822;9.270;2022-10-16T09:03:22;3.10;;;1.37;;
9322;SDS011;4700;48.822;9.270;2022-10-16T09:06:24;1.87;;;1.70;;
9322;SDS011;4700;48.822;9.270;2022-10-16T09:09:27;1.93;;;1.73;;
9322;SDS011;4700;48.822;9.270;2022-10-16T09:12:26;2.23;;;1.47;;
9322;SDS011;4700;48.822;9.270;2022-10-16T09:15:20;1.60;;;1.50;;
9322;SDS011;4700;48.822;9.270;2022-10-16T09:18:18;3.03;;;1.50;;
9322;SDS011;4700;48.822;9.270;2022-10-16T09:21:12;2.60;;;1.67;;
9322;SDS011;4700;48.822;9.270;2022-10-16T09:24:07;1.70;;;1.27;;
9322;SDS011;4700;48.822;9.270;2022-10-16T09:26:56;6.03;;;1.60;;
9322;SDS011;4700;48.822;9.270;2022-10-16T09:29:42;1.63;;;1.53;;
9322;SDS011;4700;48.822;9.270;2022-10-16T09:32:28;4.50;;;1.20;;
9322;SDS011;4700;48.822;9.270;2022-10-16T09:35:17;1.50;;;1.40;;
9322;SDS011;4700;48.822;9.270;2022-10-16T09:38:06;3.73;;;1.37;;
9322;SDS011;4700;48.822;9.270;2022-10-16T09:40:53;1.73;;;1.30;;
9322;SDS011;4700;48.822;9.270;2022-10-16T09:43:42;2.40;;;1.10;;
9322;SDS011;4700;48.822;9.270;2022-10-16T09:46:33;2.80;;;1.53;;
9322;SDS011;4700;48.822;9.270;2022-10-16T09:49:21;3.90;;;1.70;;
9322;SDS011;4700;48.822;9.270;2022-10-16T09:52:13;3.03;;;1.60;;
9322;SDS011;4700;48.822;9.270;2022-10-16T09:55:02;1.60;;;1.50;;
9322;SDS011;4700;48.822;9.270;2022-10-16T09:57:58;3.67;;;1.50;;
9322;SDS011;4700;48.822;9.270;2022-10-16T10:00:48;1.80;;;1.70;;
9322;SDS011;4700;48.822;9.270;2022-10-16T10:03:37;2.60;;;1.40;;
9322;SDS011;4700;48.822;9.270;2022-10-16T10:06:24;1.53;;;1.43;;
9322;SDS011;4700;48.822;9.270;2022-10-16T10:09:18;1.43;;;1.33;;
9322;SDS011;4700;48.822;9.270;2022-10-16T10:12:14;2.83;;;1.57;;
9322;SDS011;4700;48.822;9.270;2022-10-16T10:15:04;2.33;;;1.43;;
9322;SDS011;4700;48.822;9.270;2022-10-16T10:17:52;3.70;;;1.60;;
9322;SDS011;4700;48.822;9.270;2022-10-16T10:20:39;2.33;;;1.27;;
9322;SDS011;4700;48.822;9.270;2022-10-16T10:23:25;2.20;;;1.57;;
9322;SDS011;4700;48.822;9.270;2022-10-16T10:26:14;2.17;;;1.77;;
9322;SDS011;4700;48.822;9.270;2022-10-16T10:29:06;1.87;;;1.73;;
9322;SDS011;4700;48.822;9.270;2022-10-16T10:31:59;3.80;;;2.30;;
9322;SDS011;4700;48.822;9.270;2022-10-16T10:35:02;2.40;;;1.47;;
9322;SDS011;4700;48.822;9.270;2022-10-16T10:38:06;2.30;;;1.40;;
9322;SDS011;4700;48.822;9.270;2022-10-16T10:41:07;1.60;;;1.50;;
9322;SDS011;4700;48.822;9.270;2022-10-16T10:44:03;1.50;;;1.40;;
9322;SDS011;4700;48.822;9.270;2022-10-16T10:46:56;1.50;;;1.30;;
9322;SDS011;4700;48.822;9.270;2022-10-16T10:49:50;2.87;;;1.30;;
9322;SDS011;4700;48.822;9.270;2022-10-16T10:52:53;1.60;;;1.50;;
9322;SDS011;4700;48.822;9.270;2022-10-16T10:55:46;3.17;;;1.80;;
9322;SDS011;4700;48.822;9.270;2022-10-16T11:01:52;2.73;;;1.67;;
9322;SDS011;4700;48.822;9.270;2022-10-16T11:04:49;2.90;;;1.90;;
9322;SDS011;4700;48.822;9.270;2022-10-16T11:07:47;2.00;;;1.60;;
9322;SDS011;4700;48.822;9.270;2022-10-16T11:10:40;2.43;;;1.50;;
9322;SDS011;4700;48.822;9.270;2022-10-16T11:13:32;1.43;;;1.30;;
9322;SDS011;4700;48.822;9.270;2022-10-16T11:16:26;3.33;;;1.70;;
9322;SDS011;4700;48.822;9.270;2022-10-16T11:19:14;1.57;;;1.47;;
9322;SDS011;4700;48.822;9.270;2022-10-16T11:22:12;1.83;;;1.73;;
9322;SDS011;4700;48.822;9.270;2022-10-16T11:25:04;3.23;;;1.47;;
9322;SDS011;4700;48.822;9.270;2022-10-16T11:28:01;1.30;;;1.20;;
9322;SDS011;4700;48.822;9.270;2022-10-16T11:30:51;1.67;;;1.57;;
9322;SDS011;4700;48.822;9.270;2022-10-16T11:33:42;1.53;;;1.43;;
9322;SDS011;4700;48.822;9.270;2022-10-16T11:36:33;2.33;;;1.60;;
9322;SDS011;4700;48.822;9.270;2022-10-16T11:39:24;2.27;;;1.30;;
9322;SDS011;4700;48.822;9.270;2022-10-16T11:42:13;1.43;;;1.33;;
9322;SDS011;4700;48.822;9.270;2022-10-16T11:45:08;1.37;;;1.27;;
9322;SDS011;4700;48.822;9.270;2022-10-16T11:48:10;1.40;;;1.30;;
9322;SDS011;4700;48.822;9.270;2022-10-16T11:51:07;2.00;;;1.73;;
9322;SDS011;4700;48.822;9.270;2022-10-16T11:53:59;2.50;;;1.17;;
9322;SDS011;4700;48.822;9.270;2022-10-16T11:56:50;3.70;;;1.60;;
9322;SDS011;4700;48.822;9.270;2022-10-16T11:59:41;3.03;;;1.40;;
9322;SDS011;4700;48.822;9.270;2022-10-16T12:02:32;1.80;;;1.27;;
9322;SDS011;4700;48.822;9.270;2022-10-16T12:05:31;1.37;;;1.27;;
9322;SDS011;4700;48.822;9.270;2022-10-16T12:08:28;2.60;;;1.47;;
9322;SDS011;4700;48.822;9.270;2022-10-16T12:11:23;2.40;;;1.30;;
9322;SDS011;4700;48.822;9.270;2022-10-16T12:14:21;1.67;;;1.53;;
9322;SDS011;4700;48.822;9.270;2022-10-16T12:17:23;1.60;;;1.30;;
9322;SDS011;4700;48.822;9.270;2022-10-16T12:20:25;1.83;;;1.10;;
9322;SDS011;4700;48.822;9.270;2022-10-16T12:23:16;1.93;;;1.50;;
9322;SDS011;4700;48.822;9.270;2022-10-16T12:26:08;2.07;;;1.30;;
9322;SDS011;4700;48.822;9.270;2022-10-16T12:28:55;2.60;;;1.20;;
9322;SDS011;4700;48.822;9.270;2022-10-16T12:31:58;1.43;;;1.33;;
9322;SDS011;4700;48.822;9.270;2022-10-16T12:34:44;4.20;;;1.70;;
9322;SDS011;4700;48.822;9.270;2022-10-16T12:37:33;2.00;;;1.40;;
9322;SDS011;4700;48.822;9.270;2022-10-16T12:40:25;3.40;;;1.43;;
9322;SDS011;4700;48.822;9.270;2022-10-16T12:43:34;1.40;;;1.30;;
9322;SDS011;4700;48.822;9.270;2022-10-16T12:46:36;4.53;;;2.37;;
9322;SDS011;4700;48.822;9.270;2022-10-16T12:49:29;2.90;;;1.30;;
9322;SDS011;4700;48.822;9.270;2022-10-16T12:52:23;3.20;;;1.40;;
9322;SDS011;4700;48.822;9.270;2022-10-16T12:55:15;1.50;;;1.40;;
9322;SDS011;4700;48.822;9.270;2022-10-16T12:58:05;2.00;;;1.47;;
9322;SDS011;4700;48.822;9.270;2022-10-16T13:03:44;3.17;;;1.17;;
9322;SDS011;4700;48.822;9.270;2022-10-16T13:06:51;2.23;;;1.60;;
9322;SDS011;4700;48.822;9.270;2022-10-16T13:09:43;2.47;;;1.53;;
9322;SDS011;4700;48.822;9.270;2022-10-16T13:12:51;2.90;;;1.60;;
9322;SDS011;4700;48.822;9.270;2022-10-16T13:15:50;2.10;;;1.43;;
9322;SDS011;4700;48.822;9.270;2022-10-16T13:18:48;1.60;;;1.50;;
9322;SDS011;4700;48.822;9.270;2022-10-16T13:21:44;1.77;;;1.13;;
9322;SDS011;4700;48.822;9.270;2022-10-16T13:24:39;1.30;;;1.20;;
9322;SDS011;4700;48.822;9.270;2022-10-16T13:27:40;1.63;;;1.50;;
9322;SDS011;4700;48.822;9.270;2022-10-16T13:30:33;1.97;;;1.77;;
9322;SDS011;4700;48.822;9.270;2022-10-16T13:33:24;3.53;;;1.80;;
9322;SDS011;4700;48.822;9.270;2022-10-16T13:36:22;6.67;;;1.80;;
9322;SDS011;4700;48.822;9.270;2022-10-16T13:39:13;3.10;;;1.50;;
9322;SDS011;4700;48.822;9.270;2022-10-16T13:42:01;3.03;;;1.50;;
9322;SDS011;4700;48.822;9.270;2022-10-16T13:44:50;5.13;;;1.73;;
9322;SDS011;4700;48.822;9.270;2022-10-16T13:47:37;2.93;;;1.77;;
9322;SDS011;4700;48.822;9.270;2022-10-16T13:50:23;2.50;;;1.60;;
9322;SDS011;4700;48.822;9.270;2022-10-16T13:53:12;2.03;;;1.60;;
9322;SDS011;4700;48.822;9.270;2022-10-16T13:55:59;2.40;;;2.00;;
9322;SDS011;4700;48.822;9.270;2022-10-16T13:58:45;1.77;;;1.67;;
9322;SDS011;4700;48.822;9.270;2022-10-16T14:04:02;2.67;;;1.67;;
9322;SDS011;4700;48.822;9.270;2022-10-16T14:06:50;4.30;;;1.40;;
9322;SDS011;4700;48.822;9.270;2022-10-16T14:09:38;1.67;;;1.20;;
9322;SDS011;4700;48.822;9.270;2022-10-16T14:12:24;1.30;;;1.20;;
9322;SDS011;4700;48.822;9.270;2022-10-16T14:15:15;1.40;;;1.30;;
9322;SDS011;4700;48.822;9.270;2022-10-16T14:18:03;1.90;;;1.70;;
9322;SDS011;4700;48.822;9.270;2022-10-16T14:20:49;1.53;;;1.37;;
9322;SDS011;4700;48.822;9.270;2022-10-16T14:23:36;1.70;;;1.60;;
9322;SDS011;4700;48.822;9.270;2022-10-16T14:26:26;2.40;;;1.53;;
9322;SDS011;4700;48.822;9.270;2022-10-16T14:29:14;1.83;;;1.60;;
9322;SDS011;4700;48.822;9.270;2022-10-16T14:32:03;3.00;;;1.80;;
9322;SDS011;4700;48.822;9.270;2022-10-16T14:34:53;3.93;;;2.60;;
9322;SDS011;4700;48.822;9.270;2022-10-16T14:37:39;2.40;;;1.60;;
9322;SDS011;4700;48.822;9.270;2022-10-16T14:40:26;1.47;;;1.37;;
9322;SDS011;4700;48.822;9.270;2022-10-16T14:43:17;1.87;;;1.77;;
9322;SDS011;4700;48.822;9.270;2022-10-16T14:46:08;3.40;;;2.73;;
9322;SDS011;4700;48.822;9.270;2022-10-16T14:48:59;2.93;;;2.60;;
9322;SDS011;4700;48.822;9.270;2022-10-16T14:51:48;2.67;;;2.10;;
9322;SDS011;4700;48.822;9.270;2022-10-16T14:54:33;3.17;;;2.43;;
9322;SDS011;4700;48.822;9.270;2022-10-16T14:57:19;3.93;;;2.30;;
9322;SDS011;4700;48.822;9.270;2022-10-16T15:00:13;1.90;;;1.77;;
9322;SDS011;4700;48.822;9.270;2022-10-16T15:03:04;1.60;;;1.50;;
9322;SDS011;4700;48.822;9.270;2022-10-16T15:05:50;2.50;;;2.00;;
9322;SDS011;4700;48.822;9.270;2022-10-16T15:08:36;2.83;;;2.63;;
9322;SDS011;4700;48.822;9.270;2022-10-16T15:11:21;2.40;;;1.90;;
9322;SDS011;4700;48.822;9.270;2022-10-16T15:14:10;1.80;;;1.63;;
9322;SDS011;4700;48.822;9.270;2022-10-16T15:16:58;2.23;;;1.90;;
9322;SDS011;4700;48.822;9.270;2022-10-16T15:19:44;1.90;;;1.50;;
9322;SDS011;4700;48.822;9.270;2022-10-16T15:22:39;1.80;;;1.70;;
9322;SDS011;4700;48.822;9.270;2022-10-16T15:25:27;2.70;;;1.40;;
9322;SDS011;4700;48.822;9.270;2022-10-16T15:28:20;4.53;;;1.60;;
9322;SDS011;4700;48.822;9.270;2022-10-16T15:31:07;1.60;;;1.50;;
9322;SDS011;4700;48.822;9.270;2022-10-16T15:33:54;4.20;;;1.43;;
9322;SDS011;4700;48.822;9.270;2022-10-16T15:36:45;1.97;;;1.87;;
9322;SDS011;4700;48.822;9.270;2022-10-16T15:39:31;2.17;;;1.97;;
9322;SDS011;4700;48.822;9.270;2022-10-16T15:42:17;1.60;;;1.50;;
9322;SDS011;4700;48.822;9.270;2022-10-16T15:45:03;2.40;;;1.83;;
9322;SDS011;4700;48.822;9.270;2022-10-16T15:47:50;1.73;;;1.63;;
9322;SDS011;4700;48.822;9.270;2022-10-16T15:50:37;2.70;;;1.90;;
9322;SDS011;4700;48.822;9.270;2022-10-16T15:53:24;3.17;;;2.13;;
9322;SDS011;4700;48.822;9.270;2022-10-16T15:56:10;3.60;;;2.10;;
9322;SDS011;4700;48.822;9.270;2022-10-16T15:58:56;2.47;;;2.00;;
9322;SDS011;4700;48.822;9.270;2022-10-16T16:01:42;2.73;;;2.50;;
9322;SDS011;4700;48.822;9.270;2022-10-16T16:04:29;3.93;;;3.30;;
9322;SDS011;4700;48.822;9.270;2022-10-16T16:07:17;3.83;;;3.53;;
9322;SDS011;4700;48.822;9.270;2022-10-16T16:10:03;5.53;;;2.63;;
9322;SDS011;4700;48.822;9.270;2022-10-16T16:12:51;3.50;;;2.50;;
9322;SDS011;4700;48.822;9.270;2022-10-16T16:15:40;3.57;;;2.73;;
9322;SDS011;4700;48.822;9.270;2022-10-16T16:18:26;3.07;;;2.83;;
9322;SDS011;4700;48.822;9.270;2022-10-16T16:21:12;3.40;;;3.10;;
9322;SDS011;4700;48.822;9.270;2022-10-16T16:23:59;5.33;;;2.73;;
9322;SDS011;4700;48.822;9.270;2022-10-16T16:26:51;3.80;;;2.40;;
9322;SDS011;4700;48.822;9.270;2022-10-16T16:29:37;3.13;;;2.40;;
9322;SDS011;4700;48.822;9.270;2022-10-16T16:32:23;4.40;;;3.00;;
9322;SDS011;4700;48.822;9.270;2022-10-16T16:35:08;8.07;;;3.30;;
9322;SDS011;4700;48.822;9.270;2022-10-16T16:37:55;5.20;;;3.03;;
9322;SDS011;4700;48.822;9.270;2022-10-16T16:40:42;2.87;;;2.60;;
9322;SDS011;4700;48.822;9.270;2022-10-16T16:43:28;2.40;;;2.20;;
9322;SDS011;4700;48.822;9.270;2022-10-16T16:46:15;5.10;;;2.70;;
9322;SDS011;4700;48.822;9.270;2022-10-16T16:49:02;2.70;;;2.50;;
9322;SDS011;4700;48.822;9.270;2022-10-16T16:51:48;7.10;;;3.20;;
9322;SDS011;4700;48.822;9.270;2022-10-16T16:54:34;7.50;;;4.73;;
9322;SDS011;4700;48.822;9.270;2022-10-16T16:57:22;3.60;;;3.30;;
9322;SDS011;4700;48.822;9.270;2022-10-16T17:00:08;4.37;;;3.00;;
9322;SDS011;4700;48.822;9.270;2022-10-16T17:02:55;3.60;;;2.90;;
9322;SDS011;4700;48.822;9.270;2022-10-16T17:05:40;2.73;;;2.53;;
9322;SDS011;4700;48.822;9.270;2022-10-16T17:08:26;3.20;;;2.20;;
9322;SDS011;4700;48.822;9.270;2022-10-16T17:11:14;3.10;;;2.23;;
9322;SDS011;4700;48.822;9.270;2022-10-16T17:14:03;2.30;;;2.10;;
9322;SDS011;4700;48.822;9.270;2022-10-16T17:16:48;3.13;;;2.83;;
9322;SDS011;4700;48.822;9.270;2022-10-16T17:19:34;2.97;;;2.10;;
9322;SDS011;4700;48.822;9.270;2022-10-16T17:22:20;3.33;;;2.47;;
9322;SDS011;4700;48.822;9.270;2022-10-16T17:25:07;3.57;;;2.90;;
9322;SDS011;4700;48.822;9.270;2022-10-16T17:27:53;5.23;;;2.53;;
9322;SDS011;4700;48.822;9.270;2022-10-16T17:30:40;5.40;;;2.97;;
9322;SDS011;4700;48.822;9.270;2022-10-16T17:33:26;7.40;;;3.10;;
9322;SDS011;4700;48.822;9.270;2022-10-16T17:36:12;8.10;;;2.53;;
9322;SDS011;4700;48.822;9.270;2022-10-16T17:38:58;2.77;;;2.57;;